Millenium Air

Millenium Air Since 1998



 METAR AND TAF INFORMATION
METAR FOR LIPK
ADDS - METARS form results

(0927 UTC 19 January 2021)
Data provider http://aviationweather.gov/metar/data/
 
METAR text: LIPK 190900Z VRB02KT 2500 BR NSC 01/M03 Q1026
Conditions at: LIPK (FORLI (CIV/IT-AF, IT) observed 0900 UTC 19 January 2021
Temperature: 1.0°C (34°F)
Dewpoint: -3.0°C (27°F) [RH = 75%]
Pressure (altimeter): 30.30 inches Hg (1026.0 mb)
Winds: variable direction winds at 2 MPH (2 knots; 1.0 m/s)
Visibility: 1.55 miles (2.49 km)
Ceiling: at least 12,000 feet AGL
Clouds: sky clear below 12,000 feet AGL
Weather: BR  (mist)

 AIRPORT MAP

 RUNWAY INFORMATION
Runway 12 Runway length 7907 ft Runway width 148 ft
Runway elevation 97 ft Runway displaced threshold 0 ft Runway heading 117
Runway 30 Runway length 7907 ft Runway width 148 ft
Runway elevation 91 ft Runway displaced threshold 0 ft Runway heading 297

 AIRPORT FREQUENCIES
Type APP Name ROMAGNA AP Frequency 37.975 MHZ
Type APP Name ROMAGNA AP Frequency 118.15 MHZ
Type TWR Name TWR Frequency 118.95 MHZ

 AIRPORT NEAR NAVIGATION AIDS
Type NDB Name Forli Frequency 423 KHZ